createdAt,value
2018-03-04T00:00:56.916Z,66.07
2018-03-04T00:03:22.958Z,65.84
2018-03-04T00:05:48.993Z,66.11
2018-03-04T00:08:15.082Z,66.10
2018-03-04T00:10:41.170Z,66.37
2018-03-04T00:13:07.190Z,65.90
2018-03-04T00:15:33.251Z,65.95
2018-03-04T00:17:59.298Z,66.36
2018-03-04T00:20:25.358Z,65.64
2018-03-04T00:22:51.400Z,65.98
2018-03-04T00:25:17.416Z,65.84
2018-03-04T00:27:50.511Z,65.95
2018-03-04T00:30:16.525Z,65.93
2018-03-04T00:32:42.581Z,65.97
2018-03-04T00:35:08.577Z,66.08
2018-03-04T00:37:34.600Z,66.17
2018-03-04T00:40:00.622Z,66.49
2018-03-04T00:42:26.649Z,66.25
2018-03-04T00:44:52.669Z,65.74
2018-03-04T00:47:18.700Z,65.58
2018-03-04T00:49:44.837Z,66.23
2018-03-04T00:52:10.891Z,66.00
2018-03-04T00:54:36.889Z,66.07
2018-03-04T00:57:02.959Z,65.95
2018-03-04T00:59:29.053Z,66.03
2018-03-04T01:01:55.095Z,66.03
2018-03-04T01:04:21.125Z,66.27
2018-03-04T01:06:47.150Z,65.86
2018-03-04T01:09:13.214Z,65.68
2018-03-04T01:11:39.296Z,65.62
2018-03-04T01:14:05.404Z,66.19
2018-03-04T01:16:31.401Z,66.41
2018-03-04T01:18:57.418Z,66.53
2018-03-04T01:21:23.405Z,66.79
2018-03-04T01:23:49.517Z,66.49
2018-03-04T01:26:22.442Z,66.55
2018-03-04T01:28:48.433Z,66.50
2018-03-04T01:31:14.450Z,66.44
2018-03-04T01:33:40.450Z,66.29
2018-03-04T01:36:06.465Z,66.51
2018-03-04T01:38:32.416Z,66.95
2018-03-04T01:40:58.452Z,66.90
2018-03-04T01:43:24.484Z,67.24
2018-03-04T01:45:50.536Z,66.63
2018-03-04T01:48:16.565Z,67.20
2018-03-04T01:50:42.588Z,67.11
2018-03-04T01:53:08.573Z,66.93
2018-03-04T01:55:34.614Z,67.26
2018-03-04T01:58:00.678Z,67.42
2018-03-04T02:00:26.673Z,67.06
2018-03-04T02:02:52.764Z,67.18
2018-03-04T02:05:18.766Z,67.46
2018-03-04T02:07:44.791Z,67.69
2018-03-04T02:10:10.812Z,67.77
2018-03-04T02:12:36.819Z,68.82
2018-03-04T02:15:03.429Z,69.07
2018-03-04T02:17:29.490Z,70.42
2018-03-04T02:19:55.525Z,71.17
2018-03-04T02:22:21.565Z,72.02
2018-03-04T02:24:47.624Z,72.55
2018-03-04T02:27:13.722Z,73.11
2018-03-04T02:29:39.745Z,73.93
2018-03-04T02:32:05.803Z,74.32
2018-03-04T02:34:31.847Z,75.13
2018-03-04T02:36:57.862Z,75.74
2018-03-04T02:39:23.831Z,75.61
2018-03-04T02:41:49.849Z,75.84
2018-03-04T02:44:15.906Z,76.79
2018-03-04T02:46:41.958Z,76.83
2018-03-04T02:49:07.975Z,77.37
2018-03-04T02:51:33.975Z,77.59
2018-03-04T02:53:59.976Z,77.47
2018-03-04T02:56:26.006Z,77.81
2018-03-04T02:58:52.009Z,78.65
2018-03-04T03:01:18.105Z,79.05
2018-03-04T03:03:44.073Z,78.80
2018-03-04T03:06:10.073Z,80.13
2018-03-04T03:08:36.073Z,80.65
2018-03-04T03:11:02.035Z,81.19
2018-03-04T03:13:28.084Z,81.67
2018-03-04T03:15:54.030Z,81.95
2018-03-04T03:18:20.022Z,82.85
2018-03-04T03:20:46.057Z,82.75
2018-03-04T03:23:12.032Z,82.51
2018-03-04T03:25:38.092Z,83.57
2018-03-04T03:28:04.124Z,83.93
2018-03-04T03:30:30.125Z,84.16
2018-03-04T03:32:56.129Z,84.55
2018-03-04T03:35:22.202Z,85.43
2018-03-04T03:37:48.210Z,85.50
2018-03-04T03:40:14.221Z,85.54
2018-03-04T03:42:40.177Z,85.50
2018-03-04T03:45:06.194Z,86.44
2018-03-04T03:47:32.214Z,86.24
2018-03-04T03:49:58.191Z,86.49
2018-03-04T03:52:24.218Z,86.70
2018-03-04T03:54:50.298Z,86.81
2018-03-04T03:57:16.300Z,86.79
2018-03-04T03:59:42.338Z,86.80
2018-03-04T04:02:08.418Z,87.59
2018-03-04T04:04:34.409Z,87.59
2018-03-04T04:07:00.465Z,87.65
2018-03-04T04:09:26.507Z,88.49
2018-03-04T04:11:52.482Z,88.32
2018-03-04T04:14:18.503Z,88.84
2018-03-04T04:16:44.676Z,89.04
2018-03-04T04:19:10.685Z,88.56
2018-03-04T04:21:36.798Z,88.65
2018-03-04T04:24:02.805Z,89.11
2018-03-04T04:26:29.031Z,89.23
2018-03-04T04:28:55.155Z,89.60
2018-03-04T04:31:21.178Z,89.59
2018-03-04T04:33:47.217Z,90.11
2018-03-04T04:36:13.238Z,90.25
2018-03-04T04:38:39.245Z,89.92
2018-03-04T04:41:05.306Z,89.28
2018-03-04T04:43:31.353Z,89.21
2018-03-04T04:45:57.457Z,89.45
2018-03-04T04:48:23.537Z,89.17
2018-03-04T04:50:49.591Z,88.73
2018-03-04T04:53:15.621Z,88.50
2018-03-04T04:55:41.645Z,88.42
2018-03-04T04:58:07.662Z,88.77
2018-03-04T05:00:33.812Z,89.02
2018-03-04T05:02:59.908Z,89.34
2018-03-04T05:05:25.899Z,89.16
2018-03-04T05:07:52.030Z,88.40
2018-03-04T05:10:18.026Z,88.17
2018-03-04T05:12:44.042Z,88.23
2018-03-04T05:15:10.174Z,88.98
2018-03-04T05:17:36.166Z,88.69
2018-03-04T05:20:02.235Z,88.96
2018-03-04T05:22:28.239Z,88.67
2018-03-04T05:24:54.254Z,88.56
2018-03-04T05:27:20.238Z,89.09
2018-03-04T05:29:46.212Z,89.52
2018-03-04T05:32:12.293Z,89.43
2018-03-04T05:34:38.292Z,89.12
2018-03-04T05:37:04.310Z,89.12
2018-03-04T05:39:30.318Z,88.75
2018-03-04T05:41:56.324Z,89.03
2018-03-04T05:44:22.322Z,89.37
2018-03-04T05:46:48.392Z,89.00
2018-03-04T05:49:14.390Z,89.50
2018-03-04T05:51:40.422Z,89.09
2018-03-04T05:54:06.550Z,88.64
2018-03-04T05:56:32.584Z,88.86
2018-03-04T05:58:58.653Z,89.08
2018-03-04T06:01:24.736Z,89.11
2018-03-04T06:03:50.736Z,89.28
2018-03-04T06:06:16.805Z,88.77
2018-03-04T06:08:43.701Z,89.54
2018-03-04T06:11:09.809Z,89.35
2018-03-04T06:13:35.797Z,89.19
2018-03-04T06:16:01.916Z,89.62
2018-03-04T06:18:27.950Z,90.18
2018-03-04T06:20:53.950Z,90.23
2018-03-04T06:23:19.968Z,90.35
2018-03-04T06:25:45.988Z,90.22
2018-03-04T06:28:12.010Z,89.51
2018-03-04T06:30:38.002Z,89.60
2018-03-04T06:33:04.114Z,89.96
2018-03-04T06:35:30.093Z,90.05
2018-03-04T06:37:56.188Z,89.40
2018-03-04T06:40:22.229Z,89.05
2018-03-04T06:42:48.218Z,88.31
2018-03-04T06:45:14.179Z,88.70
2018-03-04T06:47:40.242Z,88.05
2018-03-04T06:50:06.429Z,88.00
2018-03-04T06:52:32.420Z,88.59
2018-03-04T06:54:58.534Z,88.71
2018-03-04T06:57:24.542Z,88.76
2018-03-04T06:59:50.573Z,88.37
2018-03-04T07:02:16.696Z,88.45
2018-03-04T07:04:42.721Z,88.25
2018-03-04T07:07:08.765Z,88.35
2018-03-04T07:09:34.796Z,88.58
2018-03-04T07:12:00.885Z,88.39
2018-03-04T07:14:26.910Z,88.86
2018-03-04T07:16:52.904Z,88.86
2018-03-04T07:19:18.906Z,88.56
2018-03-04T07:21:44.898Z,88.33
2018-03-04T07:24:10.936Z,88.26
2018-03-04T07:26:36.916Z,88.07
2018-03-04T07:29:02.909Z,87.86
2018-03-04T07:31:28.971Z,87.54
2018-03-04T07:33:55.262Z,88.28
2018-03-04T07:36:21.229Z,87.70
2018-03-04T07:38:47.336Z,87.42
2018-03-04T07:41:13.365Z,87.13
2018-03-04T07:43:39.373Z,87.20
2018-03-04T07:46:05.463Z,87.94
2018-03-04T07:48:31.455Z,87.62
2018-03-04T07:50:57.493Z,87.73
2018-03-04T07:53:23.525Z,87.31
2018-03-04T07:55:49.620Z,86.87
2018-03-04T07:58:15.645Z,86.61
2018-03-04T08:00:41.657Z,86.30
2018-03-04T08:03:07.693Z,86.65
2018-03-04T08:05:33.722Z,86.36
2018-03-04T08:07:59.713Z,85.93
2018-03-04T08:10:25.741Z,85.78
2018-03-04T08:12:51.838Z,85.48
2018-03-04T08:15:17.810Z,84.69
2018-03-04T08:17:43.844Z,85.43
2018-03-04T08:20:09.900Z,86.41
2018-03-04T08:22:35.941Z,85.85
2018-03-04T08:25:14.215Z,86.55
2018-03-04T08:27:52.581Z,86.46
2018-03-04T08:30:18.598Z,86.31
2018-03-04T08:32:44.627Z,86.28
2018-03-04T08:35:10.855Z,85.95
2018-03-04T08:37:36.866Z,85.91
2018-03-04T08:40:04.604Z,85.63
2018-03-04T08:42:30.639Z,85.58
2018-03-04T08:44:56.673Z,86.31
2018-03-04T08:47:22.703Z,86.45
2018-03-04T08:49:48.720Z,86.25
2018-03-04T08:52:14.736Z,85.81
2018-03-04T08:54:40.806Z,85.48
2018-03-04T08:57:06.857Z,85.29
2018-03-04T08:59:32.859Z,84.45
2018-03-04T09:01:58.909Z,84.99
2018-03-04T09:04:25.013Z,84.73
2018-03-04T09:06:51.153Z,84.30
2018-03-04T09:09:17.142Z,84.59
2018-03-04T09:11:43.157Z,85.17
2018-03-04T09:14:09.194Z,84.16
2018-03-04T09:16:35.204Z,83.27
2018-03-04T09:19:01.249Z,83.69
2018-03-04T09:21:27.194Z,83.00
2018-03-04T09:23:53.194Z,83.53
2018-03-04T09:26:19.221Z,83.67
2018-03-04T09:28:45.254Z,84.99
2018-03-04T09:31:11.234Z,84.25
2018-03-04T09:33:37.194Z,84.28
2018-03-04T09:36:03.241Z,83.69
2018-03-04T09:38:29.299Z,83.07
2018-03-04T09:40:55.367Z,83.77
2018-03-04T09:43:21.370Z,83.02
2018-03-04T09:45:47.378Z,82.54
2018-03-04T09:48:13.413Z,84.30
2018-03-04T09:50:39.385Z,84.47
2018-03-04T09:53:05.398Z,85.06
2018-03-04T09:55:31.441Z,83.64
2018-03-04T09:57:57.488Z,82.61
2018-03-04T10:00:23.527Z,81.73
2018-03-04T10:02:49.656Z,81.78
2018-03-04T10:05:15.694Z,80.96
2018-03-04T10:07:41.685Z,80.31
2018-03-04T10:10:07.768Z,80.16
2018-03-04T10:12:33.817Z,80.17
2018-03-04T10:15:06.907Z,80.88
2018-03-04T10:17:32.910Z,80.22
2018-03-04T10:19:58.973Z,82.31
2018-03-04T10:22:25.061Z,82.76
2018-03-04T10:24:51.105Z,81.97
2018-03-04T10:27:17.161Z,82.30
2018-03-04T10:29:43.116Z,81.32
2018-03-04T10:32:09.254Z,80.55
2018-03-04T10:34:35.281Z,80.33
2018-03-04T10:37:01.363Z,80.33
2018-03-04T10:39:27.465Z,80.64
2018-03-04T10:41:53.477Z,80.60
2018-03-04T10:44:19.624Z,80.20
2018-03-04T10:46:45.613Z,80.21
2018-03-04T10:49:11.635Z,78.66
2018-03-04T10:51:37.722Z,80.00
2018-03-04T10:54:03.801Z,79.87
2018-03-04T10:56:29.933Z,80.71
2018-03-04T10:58:55.961Z,79.66
2018-03-04T11:01:28.098Z,79.11
2018-03-04T11:03:54.306Z,78.72
2018-03-04T11:06:20.309Z,79.75
2018-03-04T11:08:46.339Z,78.52
2018-03-04T11:11:12.375Z,77.51
2018-03-04T11:13:38.404Z,78.62
2018-03-04T11:16:04.416Z,77.39
2018-03-04T11:18:30.426Z,76.67
2018-03-04T11:20:56.490Z,78.13
2018-03-04T11:23:22.527Z,77.18
2018-03-04T11:25:48.577Z,77.61
2018-03-04T11:28:14.646Z,77.18
2018-03-04T11:30:40.740Z,77.38
2018-03-04T11:33:06.750Z,77.07
2018-03-04T11:35:32.806Z,77.20
2018-03-04T11:37:58.858Z,76.57
2018-03-04T11:40:24.841Z,77.18
2018-03-04T11:42:50.884Z,77.58
2018-03-04T11:45:16.849Z,77.02
2018-03-04T11:47:43.021Z,78.26
2018-03-04T11:50:09.253Z,78.70
2018-03-04T11:52:35.261Z,78.01
2018-03-04T11:55:01.352Z,77.68
2018-03-04T11:57:27.366Z,76.88
2018-03-04T11:59:53.425Z,78.44
2018-03-04T12:02:19.489Z,76.69
2018-03-04T12:04:45.560Z,76.63
2018-03-04T12:07:11.578Z,77.78
2018-03-04T12:09:37.698Z,77.46
2018-03-04T12:12:03.670Z,77.47
2018-03-04T12:14:29.683Z,76.56
2018-03-04T12:16:55.764Z,77.03
2018-03-04T12:19:21.791Z,77.29
2018-03-04T12:21:47.904Z,77.81
2018-03-04T12:24:13.914Z,76.43
2018-03-04T12:26:39.910Z,76.17
2018-03-04T12:29:05.937Z,76.57
2018-03-04T12:31:32.010Z,77.42
2018-03-04T12:33:58.045Z,75.16
2018-03-04T12:36:24.033Z,76.25
2018-03-04T12:38:50.094Z,76.04
2018-03-04T12:41:16.117Z,77.43
2018-03-04T12:43:42.152Z,77.05
2018-03-04T12:46:08.193Z,75.53
2018-03-04T12:48:34.218Z,75.28
2018-03-04T12:51:00.298Z,72.10
2018-03-04T12:53:26.272Z,72.02
2018-03-04T12:55:52.299Z,70.42
2018-03-04T12:58:18.385Z,68.38
2018-03-04T13:00:44.445Z,67.12
2018-03-04T13:03:10.506Z,65.65
2018-03-04T13:05:36.513Z,65.16
2018-03-04T13:08:02.518Z,63.77
2018-03-04T13:10:28.588Z,64.05
2018-03-04T13:12:54.610Z,63.29
2018-03-04T13:15:20.677Z,66.20
2018-03-04T13:17:46.654Z,64.09
2018-03-04T13:20:12.679Z,61.91
2018-03-04T13:22:38.654Z,62.13
2018-03-04T13:25:04.673Z,63.74
2018-03-04T13:27:30.725Z,61.19
2018-03-04T13:29:56.741Z,60.07
2018-03-04T13:32:22.773Z,59.60
2018-03-04T13:34:48.793Z,59.77
2018-03-04T13:37:14.798Z,59.49
2018-03-04T13:39:40.842Z,59.67
2018-03-04T13:42:06.886Z,59.11
2018-03-04T13:44:32.909Z,60.71
2018-03-04T13:46:58.966Z,60.28
2018-03-04T13:49:25.034Z,59.28
2018-03-04T13:51:51.067Z,57.23
2018-03-04T13:54:17.111Z,60.27
2018-03-04T13:56:43.276Z,59.14
2018-03-04T13:59:09.411Z,58.76
2018-03-04T14:01:35.505Z,60.40
2018-03-04T14:04:01.533Z,61.91
2018-03-04T14:06:27.573Z,62.83
2018-03-04T14:08:53.641Z,63.06
2018-03-04T14:11:19.646Z,61.00
2018-03-04T14:13:45.650Z,59.38
2018-03-04T14:16:11.672Z,59.62
2018-03-04T14:18:37.733Z,57.75
2018-03-04T14:21:03.731Z,56.87
2018-03-04T14:23:29.774Z,56.59
2018-03-04T14:25:56.125Z,58.11
2018-03-04T14:28:22.118Z,56.05
2018-03-04T14:30:48.297Z,59.31
2018-03-04T14:33:14.344Z,60.57
2018-03-04T14:35:40.401Z,60.03
2018-03-04T14:38:06.453Z,59.48
2018-03-04T14:40:32.449Z,58.81
2018-03-04T14:42:58.442Z,58.92
2018-03-04T14:45:24.511Z,60.09
2018-03-04T14:47:50.609Z,61.38
2018-03-04T14:50:16.699Z,60.60
2018-03-04T14:52:45.783Z,60.92
2018-03-04T14:55:11.801Z,59.38
2018-03-04T14:57:37.849Z,58.18
2018-03-04T15:00:03.808Z,58.04
2018-03-04T15:02:29.841Z,63.07
2018-03-04T15:04:55.905Z,64.26
2018-03-04T15:07:21.935Z,64.53
2018-03-04T15:09:47.934Z,63.15
2018-03-04T15:12:13.973Z,64.39
2018-03-04T15:14:40.024Z,64.68
2018-03-04T15:17:06.034Z,63.74
2018-03-04T15:19:32.113Z,61.44
2018-03-04T15:21:58.182Z,61.31
2018-03-04T15:24:24.368Z,60.84
2018-03-04T15:26:50.391Z,61.91
2018-03-04T15:29:16.319Z,61.41
2018-03-04T15:31:42.448Z,62.16
2018-03-04T15:34:08.459Z,63.41
2018-03-04T15:39:07.406Z,69.17
2018-03-04T15:41:33.452Z,69.46
2018-03-04T15:43:59.471Z,69.35
2018-03-04T15:46:25.509Z,69.83
2018-03-04T15:48:51.592Z,71.20
2018-03-04T15:51:17.619Z,71.51
2018-03-04T15:53:43.654Z,72.09
2018-03-04T15:56:09.718Z,73.02
2018-03-04T15:58:35.694Z,73.22
2018-03-04T16:01:01.746Z,74.11
2018-03-04T16:03:27.770Z,73.85
2018-03-04T16:05:53.749Z,73.74
2018-03-04T16:08:19.800Z,73.87
2018-03-04T16:10:45.805Z,74.11
2018-03-04T16:13:11.882Z,74.40
2018-03-04T16:15:37.998Z,74.83
2018-03-04T16:18:03.998Z,75.02
2018-03-04T16:20:30.017Z,75.01
2018-03-04T16:22:56.041Z,75.35
2018-03-04T16:25:22.117Z,75.68
2018-03-04T16:27:48.131Z,76.36
2018-03-04T16:30:14.157Z,76.84
2018-03-04T16:32:40.241Z,77.38
2018-03-04T16:35:06.362Z,77.66
2018-03-04T16:37:32.477Z,78.41
2018-03-04T16:39:58.477Z,78.87
2018-03-04T16:42:24.552Z,79.72
2018-03-04T16:44:50.630Z,79.95
2018-03-04T16:47:16.681Z,80.46
2018-03-04T16:49:42.713Z,81.11
2018-03-04T16:52:08.806Z,81.35
2018-03-04T16:54:34.754Z,81.11
2018-03-04T16:57:00.754Z,80.85
2018-03-04T16:59:26.768Z,80.71
2018-03-04T17:01:52.967Z,80.20
2018-03-04T17:04:18.993Z,80.55
2018-03-04T17:06:45.050Z,80.96
2018-03-04T17:09:11.097Z,80.70
2018-03-04T17:11:37.113Z,81.14
2018-03-04T17:14:03.234Z,81.85
2018-03-04T17:16:29.416Z,82.38
2018-03-04T17:18:55.430Z,82.39
2018-03-04T17:21:21.589Z,82.05
2018-03-04T17:23:47.674Z,82.13
2018-03-04T17:26:13.760Z,81.96
2018-03-04T17:28:39.783Z,82.28
2018-03-04T17:31:05.819Z,82.54
2018-03-04T17:33:31.902Z,82.93
2018-03-04T17:35:57.849Z,82.81
2018-03-04T17:38:23.846Z,82.87
2018-03-04T17:40:49.965Z,83.07
2018-03-04T17:43:15.946Z,83.28
2018-03-04T17:45:41.962Z,83.08
2018-03-04T17:48:07.979Z,83.67
2018-03-04T17:50:33.977Z,84.00
2018-03-04T17:53:00.016Z,83.74
2018-03-04T17:55:26.125Z,83.73
2018-03-04T17:57:52.216Z,83.44
2018-03-04T18:00:18.360Z,83.38
2018-03-04T18:02:44.616Z,83.20
2018-03-04T18:05:10.616Z,83.17
2018-03-04T18:07:36.906Z,83.07
2018-03-04T18:10:03.167Z,82.70
2018-03-04T18:12:29.238Z,82.15
2018-03-04T18:14:55.337Z,81.95
2018-03-04T18:17:21.388Z,81.66
2018-03-04T18:19:47.429Z,81.38
2018-03-04T18:22:13.460Z,81.19
2018-03-04T18:24:39.601Z,80.49
2018-03-04T18:27:05.669Z,79.76
2018-03-04T18:29:31.772Z,79.85
2018-03-04T18:31:57.759Z,80.08
2018-03-04T18:34:23.808Z,80.45
2018-03-04T18:36:49.853Z,80.51
2018-03-04T18:39:15.873Z,80.69
2018-03-04T18:41:41.906Z,81.26
2018-03-04T18:44:07.977Z,81.56
2018-03-04T18:46:34.278Z,81.50
2018-03-04T18:49:01.341Z,80.89
2018-03-04T18:51:27.426Z,80.16
2018-03-04T18:53:53.511Z,80.36
2018-03-04T18:56:19.606Z,80.60
2018-03-04T18:58:45.664Z,81.21
2018-03-04T19:01:11.688Z,81.31
2018-03-04T19:03:37.802Z,81.21
2018-03-04T19:06:03.820Z,80.99
2018-03-04T19:08:29.869Z,81.82
2018-03-04T19:10:55.929Z,81.59
2018-03-04T19:13:21.981Z,81.68
2018-03-04T19:15:48.139Z,81.43
2018-03-04T19:18:14.169Z,81.46
2018-03-04T19:20:40.260Z,81.07
2018-03-04T19:23:06.314Z,81.42
2018-03-04T19:25:32.341Z,81.68
2018-03-04T19:27:58.360Z,81.56
2018-03-04T19:30:24.938Z,81.81
2018-03-04T19:32:51.020Z,82.33
2018-03-04T19:35:17.036Z,82.57
2018-03-04T19:37:43.103Z,83.10
2018-03-04T19:40:09.134Z,83.14
2018-03-04T19:42:38.847Z,83.03
2018-03-04T19:45:04.973Z,83.05
2018-03-04T19:47:31.096Z,82.71
2018-03-04T19:49:57.195Z,82.73
2018-03-04T19:52:23.214Z,82.31
2018-03-04T19:54:49.257Z,82.10
2018-03-04T19:57:15.241Z,81.30
2018-03-04T19:59:41.295Z,80.77
2018-03-04T20:02:07.238Z,80.40
2018-03-04T20:04:33.273Z,80.00
2018-03-04T20:06:59.386Z,79.62
2018-03-04T20:09:25.395Z,79.03
2018-03-04T20:11:51.444Z,79.03
2018-03-04T20:14:17.490Z,78.67
2018-03-04T20:16:43.649Z,78.33
2018-03-04T20:19:09.738Z,77.92
2018-03-04T20:21:35.884Z,77.35
2018-03-04T20:24:01.983Z,77.11
2018-03-04T20:26:28.009Z,76.77
2018-03-04T20:28:54.105Z,76.51
2018-03-04T20:31:20.209Z,76.58
2018-03-04T20:33:46.316Z,75.90
2018-03-04T20:36:12.427Z,75.51
2018-03-04T20:38:38.498Z,75.95
2018-03-04T20:41:04.641Z,75.22
2018-03-04T20:43:30.753Z,75.20
2018-03-04T20:45:56.911Z,75.73
2018-03-04T20:48:23.024Z,75.25
2018-03-04T20:50:49.094Z,74.96
2018-03-04T20:53:15.094Z,74.81
2018-03-04T20:55:41.162Z,75.03
2018-03-04T20:58:07.229Z,74.87
2018-03-04T21:00:33.238Z,74.80
2018-03-04T21:02:59.249Z,75.08
2018-03-04T21:05:25.273Z,74.68
2018-03-04T21:07:51.368Z,74.65
2018-03-04T21:10:17.340Z,74.54
2018-03-04T21:12:43.388Z,74.26
2018-03-04T21:15:09.450Z,74.36
2018-03-04T21:17:35.493Z,74.68
2018-03-04T21:20:01.544Z,74.58
2018-03-04T21:22:27.624Z,74.49
2018-03-04T21:24:53.713Z,74.26
2018-03-04T21:27:19.734Z,74.59
2018-03-04T21:29:45.786Z,74.84
2018-03-04T21:32:11.800Z,75.06
2018-03-04T21:34:37.865Z,75.08
2018-03-04T21:37:03.916Z,75.17
2018-03-04T21:39:29.993Z,75.35
2018-03-04T21:41:56.027Z,75.74
2018-03-04T21:44:22.029Z,75.98
2018-03-04T21:46:48.069Z,75.81
2018-03-04T21:49:14.117Z,75.80
2018-03-04T21:51:40.093Z,75.57
2018-03-04T21:54:06.152Z,75.19
2018-03-04T21:56:32.183Z,75.21
2018-03-04T21:58:58.233Z,75.24
2018-03-04T22:01:24.297Z,74.62
2018-03-04T22:03:50.337Z,74.88
2018-03-04T22:06:16.405Z,74.83
2018-03-04T22:08:42.402Z,74.32
2018-03-04T22:11:08.482Z,74.42
2018-03-04T22:13:34.529Z,73.91
2018-03-04T22:16:00.578Z,73.34
2018-03-04T22:18:26.661Z,72.75
2018-03-04T22:20:52.629Z,73.27
2018-03-04T22:23:18.686Z,72.81
2018-03-04T22:25:44.759Z,72.22
2018-03-04T22:28:10.721Z,72.09
2018-03-04T22:30:36.712Z,72.24
2018-03-04T22:33:02.754Z,72.42
2018-03-04T22:35:28.812Z,72.80
2018-03-04T22:37:54.921Z,72.39
2018-03-04T22:40:20.921Z,72.41
2018-03-04T22:42:46.993Z,72.01
2018-03-04T22:45:13.013Z,71.88
2018-03-04T22:47:39.059Z,72.08
2018-03-04T22:50:05.096Z,72.45
2018-03-04T22:52:31.162Z,72.17
2018-03-04T22:54:57.120Z,72.37
2018-03-04T22:57:23.168Z,72.12
2018-03-04T22:59:49.218Z,72.48
2018-03-04T23:02:15.214Z,72.42
2018-03-04T23:04:41.204Z,72.22
2018-03-04T23:07:07.256Z,72.00
2018-03-04T23:09:33.299Z,72.49
2018-03-04T23:11:59.353Z,72.42
2018-03-04T23:14:25.423Z,72.87
2018-03-04T23:16:51.525Z,73.21
2018-03-04T23:19:17.534Z,73.22
2018-03-04T23:21:43.605Z,73.87
2018-03-04T23:24:09.650Z,73.74
2018-03-04T23:26:35.662Z,73.85
2018-03-04T23:29:01.730Z,73.86
2018-03-04T23:31:27.736Z,73.30
2018-03-04T23:33:53.818Z,72.67
2018-03-04T23:36:19.810Z,71.83
2018-03-04T23:38:45.864Z,71.71
2018-03-04T23:41:11.905Z,71.78
2018-03-04T23:43:37.925Z,71.28
2018-03-04T23:46:03.971Z,71.91
2018-03-04T23:48:30.011Z,73.00
2018-03-04T23:50:56.046Z,73.19
2018-03-04T23:53:22.085Z,74.89
2018-03-04T23:55:48.686Z,75.83
2018-03-04T23:58:14.726Z,76.10
